Ed's Weather Station

Ed's Weather Station
Located south of Fulton, MO
Lat. 38.75234 N
Lon. 91.96758 W
Elevation 787 ft

GR3 Radar

Current 24 Hours Yesterday Last 48 Hours Last 72 Hours Last 30 Days Yearly Rainfall Yearly Temp Trends Monthly Wind Direction Last 30 Days Temperature Solar Data
Highs and Lows Trends Sun & Moon Rise\Set Times Moon\Solar Info
Local Weather Advisories Area Forecast Discussion Hazardous Weather Outlook U.S. Severe Weather Storm Prediction Center
All Time Records Monthly Records Yearly Records
Weather Gauges MW Weather Network
Local Area Conditions Printable Weather Flyer MO River Information
About Ed's Weather Weather Station Status Weather Graphic Personal Weather Sites
Kansas City NEXRAD Radar Local/Regional Radar Satellite Images
Weather Underground Data Rain Detail Chart
NWS Forecast Details Ed's Forecast Details UV Forecast Pollen Forecast Space Weather
Member of the following organizations:





Local Links:
Callaway County Sheriff

Eds Weather Station - WU Station History
Station Historical Data
 
Daily Summary for June 24, 2018 Units:  English    Metric   Both
« Previous Day
Next Day »
Daily Weekly Monthly Yearly Custom
  Current: High: Low: Average:
Temperature: 80.5 °F TemperatureF °F 62.3 °F 71.1 °F
Dew Point: 71.8 °F DewpointF °F 61.0 °F 66.3 °F
Humidity: 75% Humidity% 63% 86%
Wind Speed: 1.0mph WindSpeedMPHmph 0.0mph 1.4mph
Wind Gust: 0.0mph WindSpeedGustMPHmph - -
WindSSE - - SE
Pressure: 29.85 in PressureIn in 29.78 in -
Precipitation: 0.00 in      
Historical Graphs
 
 
Tabular Data for June 24, 2018
Time Temperature Dew Point Pressure Wind Wind Speed Wind Gust Humidity Rainfall Rate (Hourly) solar Conditions
TemperatureF °F DewpointF °F PressureIn in Calm     Humidity% HourlyPrecipIn in SolarRadiationWatts/m^2 W/m2 Conditions
00:04 65.4 °F 63.3 °F 29.79 in Calm     93% 0.00 in 0.00 W/m2 CLR
00:09 65.3 °F 63.2 °F 29.78 in Calm     93% 0.00 in 0.00 W/m2 CLR
00:14 65.3 °F 63.2 °F 29.78 in Calm     93% 0.00 in 0.00 W/m2 CLR
00:19 65.3 °F 63.5 °F 29.78 in Calm     94% 0.00 in 0.00 W/m2 CLR
00:24 65.2 °F 63.4 °F 29.78 in Calm     94% 0.00 in 0.00 W/m2 CLR
00:29 65.0 °F 63.2 °F 29.79 in Calm     94% 0.00 in 0.00 W/m2 CLR
00:34 64.9 °F 63.1 °F 29.79 in Calm     94% 0.00 in 0.00 W/m2 CLR
00:39 65.0 °F 63.5 °F 29.79 in Calm     95% 0.00 in 0.00 W/m2 CLR
00:44 65.0 °F 63.2 °F 29.79 in Calm     94% 0.00 in 0.00 W/m2 CLR
00:49 65.0 °F 63.2 °F 29.79 in Calm     94% 0.00 in 0.00 W/m2 CLR
00:54 65.1 °F 63.6 °F 29.79 in Calm     95% 0.00 in 0.00 W/m2 CLR
00:59 65.0 °F 63.2 °F 29.79 in Calm     94% 0.00 in 0.00 W/m2 CLR
01:04 64.7 °F 62.9 °F 29.79 in Calm     94% 0.00 in 0.00 W/m2 CLR
01:09 64.6 °F 62.8 °F 29.79 in Calm     94% 0.00 in 0.00 W/m2 CLR
01:14 64.4 °F 62.6 °F 29.79 in Calm     94% 0.00 in 0.00 W/m2 CLR
01:19 64.2 °F 62.4 °F 29.79 in Calm     94% 0.00 in 0.00 W/m2 CLR
01:24 64.1 °F 62.3 °F 29.79 in Calm     94% 0.00 in 0.00 W/m2 CLR
01:29 64.3 °F 62.8 °F 29.79 in Calm     95% 0.00 in 0.00 W/m2 CLR
01:34 64.4 °F 62.9 °F 29.79 in Calm     95% 0.00 in 0.00 W/m2 CLR
01:39 64.4 °F 62.9 °F 29.79 in Calm     95% 0.00 in 0.00 W/m2 CLR
01:44 64.3 °F 62.8 °F 29.79 in Calm     95% 0.00 in 0.00 W/m2 CLR
01:49 64.4 °F 62.9 °F 29.79 in Calm     95% 0.00 in 0.00 W/m2 CLR
01:54 64.1 °F 62.6 °F 29.79 in Calm     95% 0.00 in 0.00 W/m2 CLR
01:59 63.9 °F 62.1 °F 29.79 in Calm     94% 0.00 in 0.00 W/m2 CLR
02:04 63.8 °F 62.3 °F 29.78 in Calm     95% 0.00 in 0.00 W/m2 CLR
02:09 63.6 °F 62.1 °F 29.78 in Calm     95% 0.00 in 0.00 W/m2 CLR
02:14 63.4 °F 61.9 °F 29.78 in Calm     95% 0.00 in 0.00 W/m2 CLR
02:19 63.4 °F 61.9 °F 29.79 in Calm     95% 0.00 in 0.00 W/m2 CLR
02:24 63.5 °F 62.0 °F 29.79 in Calm     95% 0.00 in 0.00 W/m2 CLR
02:29 63.7 °F 62.5 °F 29.79 in Calm     96% 0.00 in 0.00 W/m2 CLR
02:34 63.8 °F 62.6 °F 29.80 in Calm     96% 0.00 in 0.00 W/m2 CLR
02:39 63.9 °F 62.7 °F 29.80 in Calm     96% 0.00 in 0.00 W/m2 CLR
02:44 63.9 °F 62.4 °F 29.80 in Calm     95% 0.00 in 0.00 W/m2 CLR
02:49 63.7 °F 62.2 °F 29.80 in Calm     95% 0.00 in 0.00 W/m2 CLR
02:54 63.6 °F 62.1 °F 29.81 in Calm     95% 0.00 in 0.00 W/m2 CLR
02:59 63.7 °F 62.5 °F 29.81 in Calm     96% 0.00 in 0.00 W/m2 CLR
03:04 63.7 °F 62.5 °F 29.81 in Calm     96% 0.00 in 0.00 W/m2 CLR
03:09 63.5 °F 62.0 °F 29.81 in Calm     95% 0.00 in 0.00 W/m2 CLR
03:14 63.4 °F 61.9 °F 29.81 in Calm     95% 0.00 in 0.00 W/m2 CLR
03:19 63.4 °F 61.9 °F 29.81 in Calm     95% 0.00 in 0.00 W/m2 CLR
03:24 63.4 °F 62.2 °F 29.81 in Calm     96% 0.00 in 0.00 W/m2 CLR
03:29 63.6 °F 62.4 °F 29.81 in Calm     96% 0.00 in 0.00 W/m2 CLR
03:34 63.6 °F 62.4 °F 29.81 in Calm     96% 0.00 in 0.00 W/m2 CLR
03:39 63.4 °F 61.9 °F 29.81 in Calm     95% 0.00 in 0.00 W/m2 CLR
03:44 63.2 °F 61.7 °F 29.80 in Calm     95% 0.00 in 0.00 W/m2 CLR
03:49 63.0 °F 61.5 °F 29.80 in Calm     95% 0.00 in 0.00 W/m2 CLR
03:54 62.7 °F 61.2 °F 29.80 in Calm     95% 0.00 in 0.00 W/m2 CLR
03:59 62.6 °F 61.1 °F 29.80 in Calm     95% 0.00 in 0.00 W/m2 CLR
04:04 62.5 °F 61.0 °F 29.80 in Calm     95% 0.00 in 0.00 W/m2 CLR
04:09 62.5 °F 61.3 °F 29.80 in Calm     96% 0.00 in 0.00 W/m2 CLR
04:14 62.5 °F 61.3 °F 29.80 in Calm     96% 0.00 in 0.00 W/m2 CLR
04:19 62.5 °F 61.3 °F 29.80 in Calm     96% 0.00 in 0.00 W/m2 CLR
04:24 62.5 °F 61.3 °F 29.80 in Calm     96% 0.00 in 0.00 W/m2 CLR
04:29 62.5 °F 61.3 °F 29.79 in Calm     96% 0.00 in 0.00 W/m2 CLR
04:34 62.5 °F 61.3 °F 29.79 in Calm     96% 0.00 in 0.00 W/m2 CLR
04:39 62.5 °F 61.3 °F 29.79 in Calm     96% 0.00 in 0.00 W/m2 CLR
04:44 62.5 °F 61.3 °F 29.79 in Calm     96% 0.00 in 0.00 W/m2 CLR
04:49 62.6 °F 61.4 °F 29.79 in Calm     96% 0.00 in 0.00 W/m2 CLR
04:54 62.7 °F 61.5 °F 29.79 in Calm     96% 0.00 in 0.00 W/m2 CLR
04:59 62.8 °F 61.6 °F 29.79 in Calm     96% 0.00 in 0.00 W/m2 CLR
05:04 62.8 °F 61.6 °F 29.79 in Calm     96% 0.00 in 0.00 W/m2 CLR
05:09 62.8 °F 61.6 °F 29.79 in Calm     96% 0.00 in 0.00 W/m2 CLR
05:14 62.8 °F 61.6 °F 29.80 in Calm     96% 0.00 in 0.00 W/m2 CLR
05:19 62.7 °F 61.5 °F 29.80 in Calm     96% 0.00 in 0.00 W/m2 CLR
05:24 62.6 °F 61.4 °F 29.80 in Calm     96% 0.00 in 0.00 W/m2 CLR
05:29 62.7 °F 61.5 °F 29.80 in Calm     96% 0.00 in 0.00 W/m2 CLR
05:34 62.5 °F 61.3 °F 29.80 in Calm     96% 0.00 in 0.00 W/m2 CLR
05:39 62.4 °F 61.2 °F 29.81 in Calm     96% 0.00 in 5.00 W/m2 CLR
05:44 62.3 °F 61.1 °F 29.81 in Calm     96% 0.00 in 5.00 W/m2 CLR
05:49 62.3 °F 61.1 °F 29.81 in Calm     96% 0.00 in 7.00 W/m2 CLR
05:54 62.4 °F 61.2 °F 29.81 in Calm     96% 0.00 in 9.00 W/m2 CLR
05:59 62.4 °F 61.2 °F 29.82 in Calm     96% 0.00 in 12.00 W/m2 CLR
06:04 62.5 °F 61.3 °F 29.81 in Calm     96% 0.00 in 16.00 W/m2 CLR
06:09 62.7 °F 61.5 °F 29.81 in Calm     96% 0.00 in 18.00 W/m2 CLR
06:14 62.9 °F 61.7 °F 29.81 in Calm     96% 0.00 in 19.00 W/m2 CLR
06:19 62.9 °F 61.7 °F 29.81 in Calm     96% 0.00 in 21.00 W/m2 CLR
06:24 62.9 °F 61.7 °F 29.81 in Calm     96% 0.00 in 18.00 W/m2 CLR
06:29 62.9 °F 61.7 °F 29.81 in Calm     96% 0.00 in 19.00 W/m2 CLR
06:34 63.0 °F 61.8 °F 29.82 in Calm     96% 0.00 in 25.00 W/m2 CLR
06:39 63.1 °F 61.9 °F 29.81 in Calm     96% 0.00 in 37.00 W/m2 CLR
06:44 63.2 °F 62.0 °F 29.81 in Calm     96% 0.00 in 46.00 W/m2 CLR
06:49 63.5 °F 62.3 °F 29.81 in Calm     96% 0.00 in 51.00 W/m2 CLR
06:54 64.1 °F 63.2 °F 29.81 in Calm     97% 0.00 in 53.00 W/m2 CLR
06:59 64.8 °F 63.9 °F 29.81 in Calm     97% 0.00 in 54.00 W/m2 CLR
07:04 65.1 °F 64.2 °F 29.81 in Calm     97% 0.00 in 58.00 W/m2 CLR
07:09 66.2 °F 65.3 °F 29.81 in South 1.0 mph 0.2 mph 97% 0.00 in 63.00 W/m2 CLR
07:14 67.1 °F 66.2 °F 29.81 in South 2.3 mph   97% 0.00 in 70.00 W/m2 CLR
07:19 67.6 °F 66.7 °F 29.81 in South 1.2 mph 0.5 mph 97% 0.00 in 77.00 W/m2 CLR
07:24 68.1 °F 67.2 °F 29.81 in Calm     97% 0.00 in 83.00 W/m2 CLR
07:29 68.7 °F 67.5 °F 29.81 in Calm     96% 0.00 in 86.00 W/m2 CLR
07:34 69.0 °F 67.5 °F 29.82 in Calm     95% 0.00 in 91.00 W/m2 CLR
07:39 69.3 °F 67.8 °F 29.82 in Calm     95% 0.00 in 97.00 W/m2 CLR
07:44 69.4 °F 67.6 °F 29.82 in Calm     94% 0.00 in 102.00 W/m2 CLR
07:49 69.5 °F 67.4 °F 29.82 in Calm     93% 0.00 in 105.00 W/m2 CLR
07:54 69.7 °F 67.9 °F 29.83 in Calm     94% 0.00 in 114.00 W/m2 CLR
07:59 70.0 °F 68.2 °F 29.83 in Calm     94% 0.00 in 127.00 W/m2 CLR
08:04 70.3 °F 68.2 °F 29.84 in Calm     93% 0.00 in 160.00 W/m2 CLR
08:09 70.8 °F 69.0 °F 29.84 in Calm     94% 0.00 in 169.00 W/m2 CLR
08:14 71.2 °F 68.8 °F 29.84 in Calm     92% 0.00 in 162.00 W/m2 CLR
08:19 71.8 °F 69.3 °F 29.84 in Calm     92% 0.00 in 174.00 W/m2 CLR
08:24 72.3 °F 69.8 °F 29.84 in North 1.2 mph 1.3 mph 92% 0.00 in 172.00 W/m2 CLR
08:29 72.8 °F 69.7 °F 29.84 in NE 3.5 mph 0.5 mph 90% 0.00 in 195.00 W/m2 CLR
08:34 73.3 °F 69.9 °F 29.83 in East 3.5 mph 0.4 mph 89% 0.00 in 190.00 W/m2 CLR
08:39 73.6 °F 70.2 °F 29.83 in ENE 2.3 mph 1.4 mph 89% 0.00 in 200.00 W/m2 CLR
08:44 74.0 °F 70.2 °F 29.84 in Calm     88% 0.00 in 236.00 W/m2 CLR
08:49 74.4 °F 70.3 °F 29.83 in Calm     87% 0.00 in 278.00 W/m2 CLR
08:54 75.1 °F 71.0 °F 29.83 in Calm     87% 0.00 in 248.00 W/m2 CLR
08:59 75.7 °F 70.9 °F 29.83 in NE 1.2 mph   85% 0.00 in 218.00 W/m2 CLR
09:04 76.1 °F 70.9 °F 29.83 in SE 1.2 mph   84% 0.00 in 221.00 W/m2 FEW
09:09 76.3 °F 71.5 °F 29.83 in Calm     85% 0.00 in 209.00 W/m2 FEW
09:14 76.4 °F 70.9 °F 29.83 in SSE 4.6 mph 2.9 mph 83% 0.00 in 206.00 W/m2 FEW
09:19 76.4 °F 70.5 °F 29.82 in SSE 4.6 mph 0.4 mph 82% 0.00 in 195.00 W/m2 FEW
09:24 76.4 °F 70.5 °F 29.82 in SE 3.5 mph 2.3 mph 82% 0.00 in 218.00 W/m2 FEW
09:29 76.2 °F 71.0 °F 29.82 in SSE 1.2 mph   84% 0.00 in 251.00 W/m2 FEW
09:34 76.5 °F 71.3 °F 29.82 in Calm     84% 0.00 in 257.00 W/m2 FEW
09:39 76.7 °F 70.4 °F 29.82 in SSE 3.5 mph 0.6 mph 81% 0.00 in 236.00 W/m2 FEW
09:44 77.0 °F 71.4 °F 29.82 in Calm     83% 0.00 in 244.00 W/m2 FEW
09:49 77.2 °F 71.6 °F 29.82 in ESE 1.2 mph 0.2 mph 83% 0.00 in 276.00 W/m2 FEW
09:54 77.3 °F 71.4 °F 29.82 in South 2.3 mph   82% 0.00 in 269.00 W/m2 FEW
09:59 77.5 °F 70.8 °F 29.82 in SSE 4.6 mph 0.8 mph 80% 0.00 in 315.00 W/m2 FEW
10:04 77.6 °F 72.0 °F 29.82 in Calm     83% 0.00 in 350.00 W/m2 SCT
10:09 78.1 °F 71.8 °F 29.82 in Calm   0.8 mph 81% 0.00 in 378.00 W/m2 SCT
10:14 78.6 °F 72.3 °F 29.82 in SSE 1.2 mph 0.4 mph 81% 0.00 in 387.00 W/m2 SCT
10:19 79.1 °F 72.8 °F 29.82 in Calm   0.4 mph 81% 0.00 in 383.00 W/m2 SCT
10:24 79.6 °F 72.5 °F 29.82 in Calm     79% 0.00 in 383.00 W/m2 SCT
10:29 80.1 °F 73.0 °F 29.83 in NE 1.2 mph   79% 0.00 in 422.00 W/m2 SCT
10:34 80.6 °F 73.5 °F 29.83 in SSE 1.2 mph 1.6 mph 79% 0.00 in 399.00 W/m2 SCT
10:39 80.6 °F 72.3 °F 29.84 in SSE 3.5 mph 2.5 mph 76% 0.00 in 478.00 W/m2 SCT
10:44 80.6 °F 72.3 °F 29.84 in SSW 5.8 mph 2.0 mph 76% 0.00 in 519.00 W/m2 SCT
10:49 80.9 °F 71.8 °F 29.84 in SSE 3.0 mph 2.3 mph 74% 0.00 in 441.00 W/m2 SCT
10:54 81.0 °F 72.3 °F 29.84 in SSE 1.2 mph 0.3 mph 75% 0.00 in 313.00 W/m2 SCT
10:59 81.2 °F 71.7 °F 29.85 in SSE 4.0 mph 2.2 mph 73% 0.00 in 515.00 W/m2 SCT
11:04 81.8 °F 73.5 °F 29.85 in ESE 2.3 mph   76% 0.00 in 452.00 W/m2 OVC
11:09 82.5 °F 72.6 °F 29.85 in South 1.2 mph 0.1 mph 72% 0.00 in 385.00 W/m2 OVC
11:14 82.9 °F 71.3 °F 29.85 in SE 3.5 mph 0.2 mph 68% 0.00 in 506.00 W/m2 OVC
11:19 83.4 °F 72.2 °F 29.85 in ESE 1.2 mph 1.5 mph 69% 0.00 in 570.00 W/m2 OVC
11:24 83.8 °F 70.3 °F 29.85 in SE 8.1 mph 3.9 mph 64% 0.00 in 373.00 W/m2 OVC
11:29 83.4 °F 70.4 °F 29.85 in SSE 4.6 mph 0.9 mph 65% 0.00 in 362.00 W/m2 OVC
11:34 83.3 °F 71.6 °F 29.85 in SE 2.3 mph 0.2 mph 68% 0.00 in 492.00 W/m2 OVC
11:39 83.7 °F 71.6 °F 29.85 in NE 4.6 mph   67% 0.00 in 404.00 W/m2 OVC
11:44 83.8 °F 69.9 °F 29.85 in South 8.1 mph 3.4 mph 63% 0.00 in 325.00 W/m2 OVC
11:49 83.5 °F 70.0 °F 29.85 in SSE 1.0 mph 0.3 mph 64% 0.00 in 239.00 W/m2 OVC
11:54 83.5 °F 71.8 °F 29.85 in Calm     68% 0.00 in 227.00 W/m2 OVC
11:59 83.4 °F 70.4 °F 29.85 in East 1.2 mph   65% 0.00 in 202.00 W/m2 OVC
12:04 83.1 °F 71.0 °F 29.86 in ESE 4.0 mph 1.0 mph 67% 0.00 in 190.00 W/m2 -RA
12:09 82.6 °F 70.5 °F 29.86 in SSE 4.6 mph 1.7 mph 67% 0.00 in 202.00 W/m2 -RA
12:14 82.4 °F 71.2 °F 29.86 in SE 8.1 mph 1.4 mph 69% 0.00 in 207.00 W/m2 -RA
12:19 82.3 °F 70.7 °F 29.86 in SSE 2.3 mph 0.7 mph 68% 0.00 in 218.00 W/m2 -RA
12:24 82.2 °F 70.1 °F 29.86 in SE 3.5 mph 1.9 mph 67% 0.00 in 278.00 W/m2 -RA
12:29 82.4 °F 70.3 °F 29.86 in ESE 5.0 mph 3.3 mph 67% 0.00 in 313.00 W/m2 -RA
12:34 82.7 °F 71.1 °F 29.86 in SW 2.3 mph 2.9 mph 68% 0.00 in 418.00 W/m2 -RA
12:39 83.2 °F 72.0 °F 29.86 in SSE 3.5 mph 1.9 mph 69% 0.00 in 415.00 W/m2 -RA
12:44 83.3 °F 69.8 °F 29.86 in South 10.4 mph 3.5 mph 64% 0.00 in 357.00 W/m2 -RA
12:49 82.9 °F 69.9 °F 29.86 in South 3.5 mph 2.9 mph 65% 0.00 in 290.00 W/m2 -RA
12:54 83.0 °F 71.3 °F 29.86 in Calm     68% 0.00 in 257.00 W/m2 -RA
12:59 83.0 °F 70.5 °F 29.86 in SSE 4.6 mph 1.4 mph 66% 0.00 in 234.00 W/m2 -RA
13:04 82.9 °F 71.3 °F 29.86 in South 1.2 mph 1.2 mph 68% 0.00 in 223.00 W/m2 OVC
13:09 82.7 °F 71.1 °F 29.86 in South 4.0 mph 1.3 mph 68% 0.00 in 225.00 W/m2 OVC
13:14 82.7 °F 71.1 °F 29.86 in Calm   1.1 mph 68% 0.00 in 239.00 W/m2 OVC
13:19 82.6 °F 71.4 °F 29.86 in SSE 2.3 mph 0.2 mph 69% 0.00 in 239.00 W/m2 OVC
13:24 82.7 °F 71.5 °F 29.86 in ESE 3.5 mph   69% 0.00 in 241.00 W/m2 OVC
13:29 82.5 °F 70.4 °F 29.86 in South 8.1 mph 1.5 mph 67% 0.00 in 265.00 W/m2 OVC
13:34 82.0 °F 70.0 °F 29.86 in South 8.1 mph 3.0 mph 67% 0.00 in 220.00 W/m2 OVC
13:39 81.7 °F 70.5 °F 29.86 in South 4.6 mph 3.5 mph 69% 0.00 in 243.00 W/m2 OVC
13:44 81.4 °F 70.7 °F 29.86 in SSE 1.2 mph   70% 0.00 in 216.00 W/m2 OVC
13:49 81.6 °F 71.3 °F 29.86 in SSE 8.1 mph 1.3 mph 71% 0.00 in 163.00 W/m2 OVC
13:54 81.6 °F 71.7 °F 29.86 in Calm   0.4 mph 72% 0.00 in 125.00 W/m2 OVC
13:59 81.5 °F 71.6 °F 29.86 in ESE 6.9 mph 3.3 mph 72% 0.00 in 107.00 W/m2 OVC
14:04 80.7 °F 70.8 °F 29.86 in SE 8.1 mph 2.7 mph 72% 0.00 in 116.00 W/m2 OVC
14:09 80.3 °F 71.6 °F 29.86 in SE 6.9 mph 1.6 mph 75% 0.00 in 162.00 W/m2 OVC
14:14 80.3 °F 71.6 °F 29.86 in South 2.3 mph   75% 0.00 in 206.00 W/m2 OVC
14:19 80.3 °F 71.6 °F 29.86 in SSE 4.6 mph 0.6 mph 75% 0.00 in 172.00 W/m2 OVC
14:24 80.3 °F 71.6 °F 29.86 in SSE 5.8 mph 1.1 mph 75% 0.00 in 171.00 W/m2 OVC
14:29 80.4 °F 71.7 °F 29.85 in SE 3.0 mph 1.9 mph 75% 0.00 in 199.00 W/m2 OVC
14:34 80.5 °F 71.4 °F 29.86 in ESE 4.6 mph 1.6 mph 74% 0.00 in 104.00 W/m2 OVC
14:39 80.2 °F 71.6 °F 29.86 in South 6.0 mph 3.6 mph 75% 0.00 in 174.00 W/m2 OVC
14:44 80.0 °F 71.8 °F 29.85 in South 4.0 mph 2.2 mph 76% 0.00 in 243.00 W/m2 OVC
14:49 80.0 °F 72.1 °F 29.85 in SSE 4.0 mph 3.0 mph 77% 0.00 in 214.00 W/m2 OVC
14:54 80.3 °F 72.4 °F 29.85 in SE 2.0 mph 0.4 mph 77% 0.00 in 188.00 W/m2 OVC
14:59 80.4 °F 71.7 °F 29.85 in SE 3.5 mph 0.1 mph 75% 0.00 in 200.00 W/m2 OVC
15:04 80.5 °F 71.8 °F 29.85 in SSE 1.0 mph   75% 0.00 in 209.00 W/m2 BKN
Fulton, MO, USA
Compliments of Weather Underground - 1.5 mb